Time;durP1;ratioP1;P1;durP2;ratioP2;P2;SDS_P1;SDS_P2;PMS_P1;PMS_P2;Temp;Humidity;BMP_temperature;BMP_pressure;BME280_temperature;BME280_humidity;BME280_pressure;Samples;Min_cycle;Max_cycle;Signal;HPM_P1;HPM_P2
2023/06/07 00:02:42;;;;;;;;;;;;;;;16.27;69.06;100283.96;133801;1301;22464;-74
2023/06/07 00:05:43;;;;;;;;;;;;;;;16.31;69.22;100282.05;133812;1304;22519;-76
2023/06/07 00:08:44;;;;;;;;;;;;;;;16.31;69.12;100282.22;133745;1301;22437;-74
2023/06/07 00:11:44;;;;;;;;;;;;;;;16.26;69.02;100281.20;133826;1301;22417;-74
2023/06/07 00:14:44;;;;;;;;;;;;;;;16.22;68.93;100281.89;133730;1301;22640;-74
2023/06/07 00:17:45;;;;;;;;;;;;;;;16.22;69.21;100283.70;133803;1300;22442;-73
2023/06/07 00:20:46;;;;;;;;;;;;;;;16.21;69.28;100286.86;133836;1301;22434;-74
2023/06/07 00:23:46;;;;;;;;;;;;;;;16.18;69.10;100286.73;133785;1300;23649;-76
2023/06/07 00:26:47;;;;;;;;;;;;;;;16.18;69.15;100289.27;133812;1301;22524;-75
2023/06/07 00:29:47;;;;;;;;;;;;;;;16.18;69.12;100288.16;133776;1301;22452;-74
2023/06/07 00:32:48;;;;;;;;;;;;;;;16.12;68.96;100291.14;133779;1301;22596;-74
2023/06/07 00:35:48;;;;;;;;;;;;;;;16.08;68.76;100294.27;133805;1300;23251;-75
2023/06/07 00:38:50;;;;;;;;;;;;;;;16.04;68.68;100295.48;133764;1302;22446;-73
2023/06/07 00:41:51;;;;;;;;;;;;;;;16.02;68.62;100292.71;133675;1301;22440;-74
2023/06/07 00:44:52;;;;;;;;;;;;;;;16.00;68.63;100296.73;133737;1301;23140;-73
2023/06/07 00:47:52;;;;;;;;;;;;;;;15.98;68.60;100293.59;133796;1301;23173;-74
2023/06/07 00:50:53;;;;;;;;;;;;;;;15.97;68.46;100298.36;133815;1301;22502;-73
2023/06/07 00:53:55;;;;;;;;;;;;;;;15.98;68.45;100300.76;133699;1301;22444;-73
2023/06/07 00:56:56;;;;;;;;;;;;;;;15.97;68.44;100301.23;133798;1301;22444;-76
2023/06/07 00:59:56;;;;;;;;;;;;;;;15.97;68.30;100304.41;133618;1300;22439;-74
2023/06/07 01:02:56;;;;;;;;;;;;;;;15.97;68.19;100302.08;133643;1301;22492;-74
2023/06/07 01:06:02;;;;;;;;;;;;;;;15.97;68.27;100303.14;133739;1300;22432;-74
2023/06/07 01:09:05;;;;;;;;;;;;;;;15.96;68.19;100300.20;133795;1301;23283;-73
2023/06/07 01:12:06;;;;;;;;;;;;;;;15.97;68.23;100298.23;133812;1301;22484;-73
2023/06/07 01:15:07;;;;;;;;;;;;;;;15.96;68.38;100301.16;133777;1301;22444;-74
2023/06/07 01:18:09;;;;;;;;;;;;;;;15.93;68.35;100294.39;133784;1300;22439;-73
2023/06/07 01:21:13;;;;;;;;;;;;;;;15.93;68.39;100296.02;133869;1300;23240;-73
2023/06/07 01:24:14;;;;;;;;;;;;;;;15.93;68.42;100295.54;133739;1301;22461;-73
2023/06/07 01:27:15;;;;;;;;;;;;;;;15.91;68.52;100294.86;133625;1301;22451;-74
2023/06/07 01:30:16;;;;;;;;;;;;;;;15.90;68.52;100290.45;133624;1304;22496;-73
2023/06/07 01:33:17;;;;;;;;;;;;;;;15.91;68.48;100283.35;133758;1301;22432;-74
2023/06/07 01:36:18;;;;;;;;;;;;;;;15.92;68.49;100284.21;133581;1302;22462;-73
2023/06/07 01:39:20;;;;;;;;;;;;;;;15.90;68.42;100283.84;133674;1302;22460;-73
2023/06/07 01:42:21;;;;;;;;;;;;;;;15.91;68.31;100280.42;133756;1301;22506;-73
2023/06/07 01:45:21;;;;;;;;;;;;;;;15.93;68.26;100280.02;133731;1302;22473;-77
2023/06/07 01:48:22;;;;;;;;;;;;;;;15.97;68.24;100279.95;133571;1302;23283;-75
2023/06/07 01:51:23;;;;;;;;;;;;;;;16.01;68.23;100283.89;133713;1301;22496;-75
2023/06/07 01:54:23;;;;;;;;;;;;;;;16.03;68.09;100279.86;133590;1304;22434;-74
2023/06/07 01:57:27;;;;;;;;;;;;;;;16.07;68.19;100278.98;133700;1304;22449;-73
2023/06/07 02:00:32;;;;;;;;;;;;;;;16.10;68.29;100278.78;133577;1302;23121;-74
2023/06/07 02:03:36;;;;;;;;;;;;;;;16.10;68.27;100280.77;133792;1301;23267;-73
2023/06/07 02:06:43;;;;;;;;;;;;;;;16.08;68.43;100281.52;133673;1302;22455;-74
2023/06/07 02:09:44;;;;;;;;;;;;;;;16.07;68.53;100280.70;133586;1301;22446;-73
2023/06/07 02:12:46;;;;;;;;;;;;;;;16.07;68.63;100280.98;133764;1295;22420;-74
2023/06/07 02:15:49;;;;;;;;;;;;;;;16.05;68.68;100277.82;133684;1304;22431;-74
2023/06/07 02:18:49;;;;;;;;;;;;;;;16.07;68.81;100281.20;133550;1304;23188;-73
2023/06/07 02:21:50;;;;;;;;;;;;;;;16.07;68.90;100283.34;133631;1301;23381;-74
2023/06/07 02:24:50;;;;;;;;;;;;;;;16.03;69.13;100285.30;133760;1301;23539;-77
2023/06/07 02:27:51;;;;;;;;;;;;;;;15.98;69.15;100289.05;133718;1301;22502;-73
2023/06/07 02:30:55;;;;;;;;;;;;;;;15.94;69.15;100292.09;133667;1301;22414;-74
2023/06/07 02:33:55;;;;;;;;;;;;;;;15.87;69.20;100292.01;133746;1301;22548;-74
2023/06/07 02:36:56;;;;;;;;;;;;;;;15.85;69.41;100295.08;133766;1302;22489;-73
2023/06/07 02:39:58;;;;;;;;;;;;;;;15.84;69.48;100294.91;133648;1304;22448;-74
2023/06/07 02:42:58;;;;;;;;;;;;;;;15.84;69.53;100293.96;133812;1301;22470;-73
2023/06/07 02:45:59;;;;;;;;;;;;;;;15.84;69.68;100296.02;133649;1304;22477;-75
2023/06/07 02:48:59;;;;;;;;;;;;;;;15.82;69.67;100295.77;133754;1301;22527;-74
2023/06/07 02:52:00;;;;;;;;;;;;;;;15.79;69.77;100295.83;133625;1302;23061;-73
2023/06/07 02:55:01;;;;;;;;;;;;;;;15.77;69.93;100298.85;133600;1304;23584;-75
2023/06/07 02:58:01;;;;;;;;;;;;;;;15.74;70.01;100297.36;133678;1301;22432;-74
2023/06/07 03:01:07;;;;;;;;;;;;;;;15.72;69.99;100298.17;133618;1304;22528;-74
2023/06/07 03:04:08;;;;;;;;;;;;;;;15.70;70.11;100296.80;133627;1301;22431;-73
2023/06/07 03:07:09;;;;;;;;;;;;;;;15.68;70.30;100299.33;133713;1307;23114;-73
2023/06/07 03:10:13;;;;;;;;;;;;;;;15.69;70.40;100300.29;133654;1301;22518;-76
2023/06/07 03:13:13;;;;;;;;;;;;;;;15.66;70.43;100303.70;133625;1304;22418;-73
2023/06/07 03:16:14;;;;;;;;;;;;;;;15.64;70.60;100302.65;133631;1301;22589;-74
2023/06/07 03:19:23;;;;;;;;;;;;;;;15.65;70.75;100307.70;133675;1301;22440;-74
2023/06/07 03:22:25;;;;;;;;;;;;;;;15.68;70.76;100314.67;133678;1301;22450;-73
2023/06/07 03:25:26;;;;;;;;;;;;;;;15.68;70.66;100312.15;133787;1301;22482;-75
2023/06/07 03:28:27;;;;;;;;;;;;;;;15.67;70.69;100314.83;133670;1294;22435;-73
2023/06/07 03:31:28;;;;;;;;;;;;;;;15.67;70.80;100317.30;133645;1301;22442;-74
2023/06/07 03:34:34;;;;;;;;;;;;;;;15.70;71.03;100321.63;133653;1301;23180;-73
2023/06/07 03:37:35;;;;;;;;;;;;;;;15.72;70.86;100327.27;133813;1301;22473;-74
2023/06/07 03:40:36;;;;;;;;;;;;;;;15.71;71.05;100328.82;133654;1299;22435;-73
2023/06/07 03:43:37;;;;;;;;;;;;;;;15.72;71.15;100329.16;133791;1301;22461;-73
2023/06/07 03:46:37;;;;;;;;;;;;;;;15.75;71.13;100333.86;133725;1301;22471;-73
2023/06/07 03:49:38;;;;;;;;;;;;;;;15.78;71.18;100333.61;133384;1301;135700;-74
2023/06/07 03:52:39;;;;;;;;;;;;;;;15.79;71.19;100332.73;133665;1301;22566;-73
2023/06/07 03:55:41;;;;;;;;;;;;;;;15.83;71.23;100332.32;133685;1302;22523;-74
2023/06/07 03:58:45;;;;;;;;;;;;;;;15.86;71.28;100327.36;133588;1302;22468;-73
2023/06/07 04:01:51;;;;;;;;;;;;;;;15.90;71.66;100329.70;133704;1304;22461;-74
2023/06/07 04:04:52;;;;;;;;;;;;;;;15.94;71.82;100331.80;133583;1302;22442;-76
2023/06/07 04:07:55;;;;;;;;;;;;;;;15.95;71.83;100334.29;133587;1303;22421;-74
2023/06/07 04:10:55;;;;;;;;;;;;;;;15.97;71.84;100339.33;133803;1295;23881;-74
2023/06/07 04:13:56;;;;;;;;;;;;;;;16.01;72.04;100337.83;133825;1301;22444;-74
2023/06/07 04:17:00;;;;;;;;;;;;;;;16.03;72.23;100337.34;133610;1294;22484;-76
2023/06/07 04:20:02;;;;;;;;;;;;;;;16.04;72.43;100336.73;133654;1306;22508;-74
2023/06/07 04:23:03;;;;;;;;;;;;;;;16.05;72.65;100334.23;133608;1304;22527;-73
2023/06/07 04:26:05;;;;;;;;;;;;;;;16.06;72.71;100330.33;133627;1303;22450;-71
2023/06/07 04:29:07;;;;;;;;;;;;;;;16.20;72.95;100328.98;133596;1304;22486;-72
2023/06/07 04:32:10;;;;;;;;;;;;;;;16.43;72.83;100323.04;133749;1301;22437;-72
2023/06/07 04:35:14;;;;;;;;;;;;;;;16.60;72.62;100321.38;133587;1302;22517;-71
2023/06/07 04:38:20;;;;;;;;;;;;;;;16.70;72.54;100314.27;133560;1303;22513;-71
2023/06/07 04:41:25;;;;;;;;;;;;;;;16.82;72.35;100314.66;133405;1302;22650;-71
2023/06/07 04:44:29;;;;;;;;;;;;;;;16.89;72.27;100313.02;133461;1304;22443;-73
2023/06/07 04:47:32;;;;;;;;;;;;;;;16.91;72.15;100315.42;133537;1302;22457;-72
2023/06/07 04:50:38;;;;;;;;;;;;;;;16.97;72.30;100313.91;133462;1303;22436;-72
2023/06/07 04:53:41;;;;;;;;;;;;;;;17.01;72.14;100318.24;133445;1303;23096;-74
2023/06/07 04:56:43;;;;;;;;;;;;;;;16.95;71.91;100317.82;133527;1304;22526;-71
2023/06/07 04:59:48;;;;;;;;;;;;;;;16.88;71.96;100316.66;133645;1304;22434;-71
2023/06/07 05:02:55;;;;;;;;;;;;;;;16.81;72.01;100313.30;133550;1297;22480;-70
2023/06/07 05:06:00;;;;;;;;;;;;;;;16.72;72.03;100316.91;133525;1304;22468;-70
2023/06/07 05:09:02;;;;;;;;;;;;;;;16.72;72.43;100316.87;133548;1304;22457;-71
2023/06/07 05:12:08;;;;;;;;;;;;;;;16.67;72.61;100321.55;133511;1303;22462;-69
2023/06/07 05:15:08;;;;;;;;;;;;;;;16.66;72.72;100321.92;133480;1302;23179;-71
2023/06/07 05:18:19;;;;;;;;;;;;;;;16.66;72.82;100320.90;133467;1305;22460;-72
2023/06/07 05:21:20;;;;;;;;;;;;;;;16.67;72.85;100323.33;133554;1303;22444;-71
2023/06/07 05:24:20;;;;;;;;;;;;;;;16.71;73.03;100322.48;133503;1304;23160;-70
2023/06/07 05:27:21;;;;;;;;;;;;;;;16.77;73.17;100324.33;133638;1304;22444;-77
2023/06/07 05:30:24;;;;;;;;;;;;;;;16.89;73.37;100327.92;133552;1301;23300;-76
2023/06/07 05:33:27;;;;;;;;;;;;;;;17.03;73.35;100331.70;133526;1304;23133;-77
2023/06/07 05:36:29;;;;;;;;;;;;;;;17.13;73.08;100332.61;133777;1300;22630;-77
2023/06/07 05:39:35;;;;;;;;;;;;;;;17.24;72.85;100335.69;133551;1308;22483;-77
2023/06/07 05:42:38;;;;;;;;;;;;;;;17.34;72.83;100334.81;133618;1301;23140;-77
2023/06/07 05:45:42;;;;;;;;;;;;;;;17.45;72.77;100333.91;133608;1303;22482;-76
2023/06/07 05:48:43;;;;;;;;;;;;;;;17.54;72.70;100335.27;133578;1300;23231;-77
2023/06/07 05:51:47;;;;;;;;;;;;;;;17.60;72.45;100337.09;133633;1301;22428;-76
2023/06/07 05:54:49;;;;;;;;;;;;;;;17.68;72.52;100332.61;133739;1301;22442;-77
2023/06/07 05:57:50;;;;;;;;;;;;;;;17.81;72.48;100330.15;133726;1301;22459;-77
2023/06/07 06:00:50;;;;;;;;;;;;;;;17.91;72.36;100331.73;133793;1301;22473;-77
2023/06/07 06:03:55;;;;;;;;;;;;;;;17.97;72.05;100336.98;133729;1301;22451;-77
2023/06/07 06:06:56;;;;;;;;;;;;;;;18.00;71.52;100335.50;133743;1301;22579;-77
2023/06/07 06:09:57;;;;;;;;;;;;;;;18.00;71.51;100336.20;133746;1301;22849;-76
2023/06/07 06:12:57;;;;;;;;;;;;;;;18.05;71.64;100338.45;133790;1301;22537;-77
2023/06/07 06:15:58;;;;;;;;;;;;;;;18.14;71.67;100339.96;133789;1304;22862;-77
2023/06/07 06:18:58;;;;;;;;;;;;;;;18.21;71.54;100337.97;133804;1307;22633;-77
2023/06/07 06:21:58;;;;;;;;;;;;;;;18.28;71.28;100340.29;133743;1301;22501;-77
2023/06/07 06:24:59;;;;;;;;;;;;;;;18.32;71.03;100340.08;133767;1301;22468;-77
2023/06/07 06:27:59;;;;;;;;;;;;;;;18.37;71.43;100339.46;133783;1291;22470;-77
2023/06/07 06:31:01;;;;;;;;;;;;;;;18.41;71.29;100337.05;133784;1305;23188;-77
2023/06/07 06:34:02;;;;;;;;;;;;;;;18.43;71.02;100337.17;133785;1304;22443;-77
2023/06/07 06:37:04;;;;;;;;;;;;;;;18.48;71.00;100333.80;133686;1301;23136;-77
2023/06/07 06:40:05;;;;;;;;;;;;;;;18.56;71.20;100332.73;133745;1301;23289;-78
2023/06/07 06:43:06;;;;;;;;;;;;;;;18.59;71.59;100334.67;133776;1305;23191;-79
2023/06/07 06:46:16;;;;;;;;;;;;;;;18.54;71.45;100332.23;133491;1301;22468;-79
2023/06/07 06:49:16;;;;;;;;;;;;;;;18.47;71.66;100335.63;133823;1301;23283;-78
2023/06/07 06:52:19;;;;;;;;;;;;;;;18.43;71.77;100339.63;133691;1301;22485;-78
2023/06/07 06:55:21;;;;;;;;;;;;;;;18.41;71.81;100340.77;133706;1301;23319;-79
2023/06/07 06:58:22;;;;;;;;;;;;;;;18.39;71.88;100340.83;133767;1301;23201;-78
2023/06/07 07:01:25;;;;;;;;;;;;;;;18.37;72.06;100338.56;133719;1301;23170;-78
2023/06/07 07:04:29;;;;;;;;;;;;;;;18.37;72.36;100340.55;133793;1301;22456;-78
2023/06/07 07:07:32;;;;;;;;;;;;;;;18.36;72.46;100344.90;133746;1300;22467;-78
2023/06/07 07:10:33;;;;;;;;;;;;;;;18.36;72.36;100347.41;133727;1301;22550;-78
2023/06/07 07:13:36;;;;;;;;;;;;;;;18.40;72.51;100350.73;133732;1301;23275;-79
2023/06/07 07:16:44;;;;;;;;;;;;;;;18.42;72.77;100351.10;133735;1301;22478;-78
2023/06/07 07:19:48;;;;;;;;;;;;;;;18.46;72.84;100354.03;133799;1300;22455;-78
2023/06/07 07:22:48;;;;;;;;;;;;;;;18.49;72.76;100349.47;133783;1301;22466;-79
2023/06/07 07:25:49;;;;;;;;;;;;;;;18.55;72.28;100351.09;133755;1301;22443;-78
2023/06/07 07:28:52;;;;;;;;;;;;;;;18.62;72.17;100352.34;133824;1292;22430;-78
2023/06/07 07:31:55;;;;;;;;;;;;;;;18.72;72.15;100355.95;133724;1303;22448;-78
2023/06/07 07:34:58;;;;;;;;;;;;;;;18.82;71.94;100357.23;133746;1301;22499;-78
2023/06/07 07:38:01;;;;;;;;;;;;;;;18.92;71.69;100357.43;133837;1302;22590;-78
2023/06/07 07:41:01;;;;;;;;;;;;;;;19.00;71.50;100355.20;133721;1301;22447;-78
2023/06/07 07:44:04;;;;;;;;;;;;;;;19.09;71.10;100355.39;133688;1302;23210;-79
2023/06/07 07:47:10;;;;;;;;;;;;;;;19.19;70.78;100354.48;133787;1302;22462;-79
2023/06/07 07:50:13;;;;;;;;;;;;;;;19.27;70.69;100356.26;133775;1301;22434;-78
2023/06/07 07:53:15;;;;;;;;;;;;;;;19.36;70.51;100353.64;133834;1300;22463;-78
2023/06/07 07:56:17;;;;;;;;;;;;;;;19.46;70.25;100355.91;133802;1301;22488;-78
2023/06/07 07:59:21;;;;;;;;;;;;;;;19.56;70.04;100358.17;133803;1295;22486;-78
2023/06/07 08:02:29;;;;;;;;;;;;;;;19.72;69.88;100352.56;133822;1301;23266;-78
2023/06/07 08:05:32;;;;;;;;;;;;;;;19.89;69.78;100358.70;133775;1301;23165;-78
2023/06/07 08:08:32;;;;;;;;;;;;;;;20.14;69.84;100358.16;133770;1301;22539;-78
2023/06/07 08:11:36;;;;;;;;;;;;;;;20.48;69.43;100357.13;133769;1302;22445;-79
2023/06/07 08:14:37;;;;;;;;;;;;;;;20.79;68.71;100356.12;133748;1301;22433;-79
2023/06/07 08:17:37;;;;;;;;;;;;;;;21.07;68.21;100355.73;133800;1301;23260;-79
2023/06/07 08:20:38;;;;;;;;;;;;;;;21.34;67.62;100358.58;133746;1302;24459;-78
2023/06/07 08:23:38;;;;;;;;;;;;;;;21.85;67.49;100353.44;133767;1301;23332;-81
2023/06/07 08:26:42;;;;;;;;;;;;;;;22.61;66.56;100350.50;133783;1301;22443;-77
2023/06/07 08:29:42;;;;;;;;;;;;;;;23.25;65.50;100345.05;133799;1301;22459;-77
2023/06/07 08:32:50;;;;;;;;;;;;;;;23.89;64.28;100343.48;133700;1302;22474;-77
2023/06/07 08:35:51;;;;;;;;;;;;;;;24.51;62.83;100342.52;133807;1301;22468;-76
2023/06/07 08:38:54;;;;;;;;;;;;;;;24.83;60.95;100341.69;133798;1302;22445;-76
2023/06/07 08:41:57;;;;;;;;;;;;;;;24.79;59.89;100343.23;133785;1301;23089;-77
2023/06/07 08:44:57;;;;;;;;;;;;;;;24.82;59.56;100341.73;133758;1301;22457;-77
2023/06/07 08:48:04;;;;;;;;;;;;;;;24.91;58.90;100337.77;133738;1304;22448;-77
2023/06/07 08:51:07;;;;;;;;;;;;;;;25.04;57.92;100336.70;133766;1308;22444;-77
2023/06/07 08:54:09;;;;;;;;;;;;;;;25.48;57.48;100334.48;133764;1301;22480;-77
2023/06/07 08:57:12;;;;;;;;;;;;;;;26.07;56.68;100331.02;133794;1294;23137;-76
2023/06/07 09:00:12;;;;;;;;;;;;;;;26.61;55.58;100328.91;133832;1300;22422;-77
2023/06/07 09:03:13;;;;;;;;;;;;;;;27.08;54.49;100324.06;133758;1302;24717;-77
2023/06/07 09:06:16;;;;;;;;;;;;;;;27.53;53.42;100319.27;133700;1301;22460;-77
2023/06/07 09:09:21;;;;;;;;;;;;;;;27.78;52.35;100320.28;133762;1300;22446;-76
2023/06/07 09:12:22;;;;;;;;;;;;;;;27.93;51.62;100320.36;133788;1300;23086;-74
2023/06/07 09:15:22;;;;;;;;;;;;;;;28.09;50.99;100322.33;133793;1302;22473;-75
2023/06/07 09:18:39;;;;;;;;;;;;;;;28.19;50.06;100318.31;133785;1305;22460;-75
2023/06/07 09:21:42;;;;;;;;;;;;;;;28.30;49.62;100316.02;133755;1304;23128;-74
2023/06/07 09:24:43;;;;;;;;;;;;;;;28.57;48.89;100314.17;133740;1300;22453;-74
2023/06/07 09:27:49;;;;;;;;;;;;;;;28.66;48.48;100315.21;133716;1301;23215;-75
2023/06/07 09:30:56;;;;;;;;;;;;;;;28.83;47.38;100312.42;133774;1301;22436;-74
2023/06/07 09:34:19;;;;;;;;;;;;;;;28.49;46.10;100307.26;133784;1301;22499;-74
2023/06/07 09:37:21;;;;;;;;;;;;;;;27.78;46.00;100309.20;133403;1303;22423;-74
2023/06/07 09:40:22;;;;;;;;;;;;;;;27.65;45.82;100302.58;133341;1303;22459;-74
2023/06/07 09:43:22;;;;;;;;;;;;;;;27.77;46.17;100302.27;133377;1303;22551;-74
2023/06/07 09:46:23;;;;;;;;;;;;;;;28.06;46.11;100300.79;133417;1303;22458;-75
2023/06/07 09:49:23;;;;;;;;;;;;;;;27.87;44.54;100297.96;133413;1303;22403;-75
2023/06/07 09:52:24;;;;;;;;;;;;;;;27.86;44.60;100294.37;133427;1303;23269;-75
2023/06/07 09:55:27;;;;;;;;;;;;;;;28.21;45.08;100291.06;133414;1303;22437;-75
2023/06/07 09:58:27;;;;;;;;;;;;;;;28.59;45.22;100288.65;133486;1303;22521;-74
2023/06/07 10:01:37;;;;;;;;;;;;;;;28.94;44.36;100285.79;133483;1302;22932;-75
2023/06/07 10:04:38;;;;;;;;;;;;;;;29.20;43.95;100280.25;133443;1303;22480;-75
2023/06/07 10:07:43;;;;;;;;;;;;;;;29.48;43.79;100271.91;133434;1303;22516;-74
2023/06/07 10:10:47;;;;;;;;;;;;;;;29.83;42.85;100270.79;133414;1303;22437;-75
2023/06/07 10:13:48;;;;;;;;;;;;;;;29.93;42.13;100268.54;133413;1303;22538;-75
2023/06/07 10:16:52;;;;;;;;;;;;;;;29.91;41.15;100265.44;133471;1302;22433;-75
2023/06/07 10:19:58;;;;;;;;;;;;;;;29.83;40.75;100268.49;133410;1303;22539;-75
2023/06/07 10:23:04;;;;;;;;;;;;;;;29.75;40.16;100266.27;133414;1302;23134;-75
2023/06/07 10:26:09;;;;;;;;;;;;;;;29.87;39.55;100257.50;133410;1303;23156;-74
2023/06/07 10:29:14;;;;;;;;;;;;;;;29.86;39.35;100251.50;133417;1303;23127;-74
2023/06/07 10:32:21;;;;;;;;;;;;;;;29.83;38.28;100252.13;133436;1303;24442;-76
2023/06/07 10:35:24;;;;;;;;;;;;;;;29.41;38.40;100250.11;133556;1301;22498;-75
2023/06/07 10:38:29;;;;;;;;;;;;;;;29.23;38.34;100250.14;133724;1301;22455;-75
2023/06/07 10:41:29;;;;;;;;;;;;;;;28.88;37.13;100248.01;133696;1301;22502;-74
2023/06/07 10:44:33;;;;;;;;;;;;;;;28.53;36.92;100246.30;133738;1301;22503;-75
2023/06/07 10:47:33;;;;;;;;;;;;;;;28.32;36.61;100251.08;133771;1297;22438;-74
2023/06/07 10:50:46;;;;;;;;;;;;;;;28.22;37.08;100242.27;133759;1301;23778;-75
2023/06/07 10:53:51;;;;;;;;;;;;;;;28.25;37.01;100238.95;133618;1301;22412;-74
2023/06/07 10:56:51;;;;;;;;;;;;;;;28.14;37.40;100236.60;133766;1304;23174;-75
2023/06/07 10:59:52;;;;;;;;;;;;;;;27.94;37.53;100234.80;133800;1301;23310;-75
2023/06/07 11:03:09;;;;;;;;;;;;;;;27.85;37.41;100231.79;133796;1300;22457;-74
2023/06/07 11:06:09;;;;;;;;;;;;;;;28.04;37.98;100223.95;133687;1304;22575;-75
2023/06/07 11:09:29;;;;;;;;;;;;;;;28.41;38.03;100220.21;133842;1297;22456;-75
2023/06/07 11:12:35;;;;;;;;;;;;;;;28.64;36.70;100218.10;133683;1292;23235;-75
2023/06/07 11:15:38;;;;;;;;;;;;;;;28.69;36.66;100219.98;133781;1300;23118;-75
2023/06/07 11:19:00;;;;;;;;;;;;;;;28.60;37.03;100224.61;133705;1300;22466;-74
2023/06/07 11:22:04;;;;;;;;;;;;;;;28.64;37.33;100216.89;133586;1303;22547;-75
2023/06/07 11:25:13;;;;;;;;;;;;;;;28.95;37.06;100212.67;133572;1301;22450;-74
2023/06/07 11:28:15;;;;;;;;;;;;;;;29.15;36.54;100208.14;133694;1301;22491;-75
2023/06/07 11:31:16;;;;;;;;;;;;;;;28.92;36.30;100217.98;133799;1300;22470;-75
2023/06/07 11:34:17;;;;;;;;;;;;;;;28.51;35.84;100224.41;133767;1301;22487;-75
2023/06/07 11:37:17;;;;;;;;;;;;;;;28.36;36.37;100217.99;133819;1301;22512;-75
2023/06/07 11:40:18;;;;;;;;;;;;;;;28.47;36.73;100210.84;133730;1300;22452;-74
2023/06/07 11:43:25;;;;;;;;;;;;;;;28.64;35.77;100205.92;133763;1300;23669;-74
2023/06/07 11:46:26;;;;;;;;;;;;;;;28.49;35.19;100201.63;133729;1302;22504;-74
2023/06/07 11:49:31;;;;;;;;;;;;;;;28.44;34.63;100200.39;133818;1301;22456;-75
2023/06/07 11:52:32;;;;;;;;;;;;;;;28.57;34.99;100200.09;133786;1301;22484;-74
2023/06/07 11:55:35;;;;;;;;;;;;;;;28.58;34.83;100196.68;133779;1302;22438;-74
2023/06/07 11:58:36;;;;;;;;;;;;;;;28.57;34.37;100198.29;133879;1300;23102;-75
2023/06/07 12:01:39;;;;;;;;;;;;;;;28.50;34.21;100193.80;133730;1300;22456;-74
2023/06/07 12:04:42;;;;;;;;;;;;;;;28.62;34.00;100184.59;133699;1301;22478;-74
2023/06/07 12:07:45;;;;;;;;;;;;;;;28.82;34.37;100181.70;133730;1301;22468;-75
2023/06/07 12:10:52;;;;;;;;;;;;;;;29.07;34.58;100170.45;133817;1300;22429;-75
2023/06/07 12:13:53;;;;;;;;;;;;;;;29.23;34.17;100168.59;133769;1301;23234;-75
2023/06/07 12:16:56;;;;;;;;;;;;;;;29.13;34.08;100165.42;133797;1301;22464;-75
2023/06/07 12:20:11;;;;;;;;;;;;;;;29.01;33.76;100163.88;133797;1300;22463;-74
2023/06/07 12:23:12;;;;;;;;;;;;;;;28.95;33.47;100159.07;133770;1301;22420;-74
2023/06/07 12:26:19;;;;;;;;;;;;;;;28.76;33.17;100157.07;133782;1302;22443;-75
2023/06/07 12:29:27;;;;;;;;;;;;;;;28.30;33.48;100161.88;133756;1301;22424;-74
2023/06/07 12:32:30;;;;;;;;;;;;;;;28.11;34.17;100160.31;133769;1301;22427;-74
2023/06/07 12:35:38;;;;;;;;;;;;;;;28.11;34.27;100157.43;133817;1302;22489;-74
2023/06/07 12:38:41;;;;;;;;;;;;;;;27.99;34.83;100152.52;133734;1300;22452;-75
2023/06/07 12:41:41;;;;;;;;;;;;;;;28.05;34.55;100154.83;133818;1301;22468;-75
2023/06/07 12:44:44;;;;;;;;;;;;;;;28.13;34.61;100160.30;133761;1301;22439;-75
2023/06/07 12:47:47;;;;;;;;;;;;;;;28.11;34.66;100160.58;133769;1301;22570;-75
2023/06/07 12:50:48;;;;;;;;;;;;;;;27.95;33.94;100154.30;133838;1301;22452;-75
2023/06/07 12:53:48;;;;;;;;;;;;;;;27.92;33.65;100155.41;133705;1301;22480;-75
2023/06/07 12:56:49;;;;;;;;;;;;;;;27.87;33.51;100156.91;133725;1301;22523;-75
2023/06/07 12:59:50;;;;;;;;;;;;;;;27.91;33.98;100158.52;133785;1300;22461;-75
2023/06/07 13:02:50;;;;;;;;;;;;;;;27.82;33.79;100156.33;133716;1301;22425;-74
2023/06/07 13:05:51;;;;;;;;;;;;;;;27.81;34.22;100153.88;133736;1301;22518;-74
2023/06/07 13:09:04;;;;;;;;;;;;;;;27.90;34.18;100149.10;133748;1301;22502;-74
2023/06/07 13:12:07;;;;;;;;;;;;;;;28.08;34.23;100142.21;133762;1301;23355;-74
2023/06/07 13:15:09;;;;;;;;;;;;;;;28.33;34.61;100136.16;133708;1301;22559;-74
2023/06/07 13:18:12;;;;;;;;;;;;;;;28.62;35.03;100137.92;133758;1301;23232;-75
2023/06/07 13:21:13;;;;;;;;;;;;;;;28.86;34.21;100141.08;133797;1300;22488;-75
2023/06/07 13:24:19;;;;;;;;;;;;;;;29.09;34.16;100135.90;133763;1301;23227;-74
2023/06/07 13:27:19;;;;;;;;;;;;;;;29.09;33.61;100134.22;133733;1301;22713;-74
2023/06/07 13:30:20;;;;;;;;;;;;;;;28.71;32.97;100136.20;133761;1294;22430;-74
2023/06/07 13:33:21;;;;;;;;;;;;;;;28.34;33.53;100136.76;133639;1302;22458;-71
2023/06/07 13:36:24;;;;;;;;;;;;;;;28.03;33.17;100137.56;133799;1288;22468;-71
2023/06/07 13:39:25;;;;;;;;;;;;;;;27.62;33.27;100131.54;133791;1301;23263;-71
2023/06/07 13:42:26;;;;;;;;;;;;;;;27.44;33.31;100127.64;133793;1300;22515;-71
2023/06/07 13:45:26;;;;;;;;;;;;;;;27.34;33.47;100128.55;133742;1301;23149;-71
2023/06/07 13:48:29;;;;;;;;;;;;;;;27.22;33.60;100122.42;133750;1300;23179;-71
2023/06/07 13:51:35;;;;;;;;;;;;;;;27.17;33.70;100123.37;133808;1301;22446;-71
2023/06/07 13:54:37;;;;;;;;;;;;;;;27.20;33.65;100121.13;133776;1300;22429;-72
2023/06/07 13:57:40;;;;;;;;;;;;;;;27.21;34.17;100119.98;133764;1301;22436;-71
2023/06/07 14:00:41;;;;;;;;;;;;;;;27.15;33.87;100112.67;133801;1303;22498;-71
2023/06/07 14:03:44;;;;;;;;;;;;;;;27.19;33.88;100112.19;133863;1301;24841;-71
2023/06/07 14:06:44;;;;;;;;;;;;;;;27.26;33.83;100107.33;133788;1300;23245;-71
2023/06/07 14:09:45;;;;;;;;;;;;;;;27.38;34.22;100109.13;133819;1301;22432;-71
2023/06/07 14:12:46;;;;;;;;;;;;;;;27.68;34.13;100106.94;133782;1301;22440;-71
2023/06/07 14:15:47;;;;;;;;;;;;;;;28.00;34.29;100106.49;133744;1301;23326;-71
2023/06/07 14:18:48;;;;;;;;;;;;;;;28.29;33.85;100101.77;133645;1301;23249;-71
2023/06/07 14:21:48;;;;;;;;;;;;;;;28.39;33.25;100100.42;133745;1301;23151;-71
2023/06/07 14:24:52;;;;;;;;;;;;;;;28.30;33.17;100096.02;133773;1301;23104;-71
2023/06/07 14:27:52;;;;;;;;;;;;;;;28.24;33.09;100093.89;133746;1300;22499;-71
2023/06/07 14:30:53;;;;;;;;;;;;;;;28.15;32.89;100100.23;133780;1301;22596;-71
2023/06/07 14:33:56;;;;;;;;;;;;;;;27.90;32.54;100102.95;133763;1300;22567;-71
2023/06/07 14:36:56;;;;;;;;;;;;;;;27.72;33.25;100100.59;133733;1300;22540;-71
2023/06/07 14:39:57;;;;;;;;;;;;;;;27.79;33.30;100100.62;133820;1300;22658;-71
2023/06/07 14:43:02;;;;;;;;;;;;;;;27.83;33.29;100101.33;133744;1301;22453;-71
2023/06/07 14:46:05;;;;;;;;;;;;;;;27.80;33.05;100103.98;133823;1300;23657;-71
2023/06/07 14:49:05;;;;;;;;;;;;;;;27.86;33.10;100107.79;133845;1301;23210;-71
2023/06/07 14:52:08;;;;;;;;;;;;;;;27.88;33.59;100114.15;133785;1300;22405;-71
2023/06/07 14:55:09;;;;;;;;;;;;;;;27.82;35.18;100114.06;133815;1301;23198;-71
2023/06/07 14:58:10;;;;;;;;;;;;;;;27.69;36.47;100108.77;133798;1301;22425;-71
2023/06/07 15:01:12;;;;;;;;;;;;;;;27.53;37.69;100112.29;133772;1301;22436;-71
2023/06/07 15:04:14;;;;;;;;;;;;;;;27.30;38.23;100124.25;133764;1301;22476;-71
2023/06/07 15:07:15;;;;;;;;;;;;;;;27.19;38.71;100135.46;133701;1301;22431;-71
2023/06/07 15:10:15;;;;;;;;;;;;;;;27.14;39.12;100133.77;133769;1300;22454;-71
2023/06/07 15:13:17;;;;;;;;;;;;;;;27.05;39.33;100131.70;133730;1300;22481;-71
2023/06/07 15:16:18;;;;;;;;;;;;;;;27.00;39.66;100126.60;133762;1301;22394;-71
2023/06/07 15:19:18;;;;;;;;;;;;;;;26.94;40.02;100122.04;133853;1300;22575;-71
2023/06/07 15:22:19;;;;;;;;;;;;;;;26.87;40.33;100125.09;133752;1302;23112;-71
2023/06/07 15:25:22;;;;;;;;;;;;;;;26.81;40.59;100124.45;133798;1301;23240;-71